Home > Products > Valid Products > TAF

000
FTUS44 KTSA 111120
TAFFSM
TAF
KFSM 111120Z 1112/1212 00000KT P6SM SCT250
     FM111600 04006KT P6SM SCT250
     FM120000 05005KT P6SM FEW250=



000
FTUS44 KTSA 111120
TAFRVS
TAF
KRVS 111120Z 1112/1212 VRB04KT P6SM BKN250
     FM111500 01007KT P6SM FEW250
     FM120000 02002KT P6SM SCT250=



000
FTUS44 KTSA 111120
TAFFYV
TAF
KFYV 111120Z 1112/1212 00000KT P6SM SCT250
     FM111700 05005KT P6SM SCT250
     FM120000 00000KT P6SM FEW250=



000
FTUS44 KTSA 111120
TAFTUL
TAF
KTUL 111120Z 1112/1212 35009KT P6SM BKN250
     FM112300 01005KT P6SM SCT250=



000
FTUS44 KTSA 111120
TAFMLC
TAF
KMLC 111120Z 1112/1212 33006KT P6SM SCT250
     FM120000 02005KT P6SM FEW250=



000
FTUS44 KTSA 111120
TAFXNA
TAF
KXNA 111120Z 1112/1212 02004KT P6SM SCT250
     FM111500 03006KT P6SM SCT250
     FM120200 31003KT P6SM FEW250=



000
FTUS44 KTSA 110538
TAFTUL
TAF
KTUL 110538Z 1106/1206 VRB03KT P6SM SKC WS012/27028KT
     FM110800 35006KT P6SM FEW250
     FM111200 35010KT P6SM FEW250
     FM112300 01005KT P6SM SCT250=



000
FTUS44 KTSA 110538
TAFXNA
TAF
KXNA 110538Z 1106/1206 23006KT P6SM SKC
     FM110700 23005KT P6SM SKC WS009/28028KT
     FM110900 35005KT P6SM FEW250
     FM111500 03006KT P6SM FEW250
     FM120200 31003KT P6SM FEW250
     FM120400 26003KT P6SM SKC=



000
FTUS44 KTSA 110538
TAFFYV
TAF
KFYV 110538Z 1106/1206 21005KT P6SM SKC
     FM110700 23003KT P6SM SKC WS009/28028KT
     FM110900 29002KT P6SM FEW250
     FM111100 36002KT P6SM FEW250
     FM111700 05005KT P6SM SKC
     FM120000 00000KT P6SM SCT250=



000
FTUS44 KTSA 110538
TAFRVS
TAF
KRVS 110538Z 1106/1206 VRB03KT P6SM SKC WS012/27028KT
     FM110800 36004KT P6SM FEW250
     FM111500 01007KT P6SM FEW250
     FM120000 02002KT P6SM SCT250=



000
FTUS44 KTSA 110538
TAFFSM
TAF
KFSM 110538Z 1106/1206 05004KT P6SM SKC
     FM110700 05003KT P6SM SKC
     FM110800 05003KT P6SM SKC WS012/29030KT
     FM111000 02004KT P6SM SKC
     FM111100 36004KT P6SM SKC
     FM111600 04006KT P6SM SKC
     FM120000 05005KT P6SM FEW250=



000
FTUS44 KTSA 110538
TAFMLC
TAF
KMLC 110538Z 1106/1206 21006KT P6SM SKC
     FM110700 24007KT P6SM SKC WS012/27028KT
     FM110900 29008KT P6SM FEW250
     FM111000 33008KT P6SM FEW250
     FM120000 02005KT P6SM FEW250=



000
FTUS44 KTSA 110538
TAFFYV
TAF
KFYV 110538Z 1106/1206 21005KT P6SM SKC
     FM110700 23003KT P6SM SKC WS009/28028KT
     FM110900 29002KT P6SM FEW250
     FM111100 36002KT P6SM FEW250
     FM111700 05005KT P6SM SKC
     FM120000 00000KT P6SM SCT250=



000
FTUS44 KTSA 110538
TAFRVS
TAF
KRVS 110538Z 1106/1206 VRB03KT P6SM SKC WS012/27028KT
     FM110800 36004KT P6SM FEW250
     FM111500 01007KT P6SM FEW250
     FM120000 02002KT P6SM SCT250=



000
FTUS44 KTSA 110538
TAFFSM
TAF
KFSM 110538Z 1106/1206 05004KT P6SM SKC
     FM110700 05003KT P6SM SKC
     FM110800 05003KT P6SM SKC WS012/29030KT
     FM111000 02004KT P6SM SKC
     FM111100 36004KT P6SM SKC
     FM111600 04006KT P6SM SKC
     FM120000 05005KT P6SM FEW250=



000
FTUS44 KTSA 110538
TAFXNA
TAF
KXNA 110538Z 1106/1206 23006KT P6SM SKC
     FM110700 23005KT P6SM SKC WS009/28028KT
     FM110900 35005KT P6SM FEW250
     FM111500 03006KT P6SM FEW250
     FM120200 31003KT P6SM FEW250
     FM120400 26003KT P6SM SKC=



000
FTUS44 KTSA 110538
TAFTUL
TAF
KTUL 110538Z 1106/1206 VRB03KT P6SM SKC WS012/27028KT
     FM110800 35006KT P6SM FEW250
     FM111200 35010KT P6SM FEW250
     FM112300 01005KT P6SM SCT250=



000
FTUS44 KTSA 110538
TAFMLC
TAF
KMLC 110538Z 1106/1206 21006KT P6SM SKC
     FM110700 24007KT P6SM SKC WS012/27028KT
     FM110900 29008KT P6SM FEW250
     FM111000 33008KT P6SM FEW250
     FM120000 02005KT P6SM FEW250=



000
FTUS44 KTSA 102333
TAFRVS
TAF
KRVS 102333Z 1100/1124 20005KT P6SM SKC
     FM110300 26003KT P6SM SKC
     FM110500 33004KT P6SM SKC
     FM110900 01005KT P6SM FEW250=



000
FTUS44 KTSA 102333
TAFMLC
TAF
KMLC 102333Z 1100/1124 21009KT P6SM SKC
     FM110700 25008KT P6SM SKC
     FM110900 35007KT P6SM SKC=



000
FTUS44 KTSA 102333
TAFFYV
TAF
KFYV 102333Z 1100/1124 21009KT P6SM SKC
     FM110300 20003KT P6SM SKC
     FM110700 00000KT P6SM FEW250
     FM111200 35004KT P6SM FEW250
     FM111700 06005KT P6SM SKC=



000
FTUS44 KTSA 102333
TAFFSM
TAF
KFSM 102333Z 1100/1124 21006KT P6SM SKC
     FM110300 12003KT P6SM SKC
     FM110400 18002KT P6SM SKC
     FM110500 22002KT P6SM SKC
     FM110600 26002KT P6SM SKC
     FM111400 33005KT P6SM SKC
     FM111600 04006KT P6SM SKC
     FM112300 36006KT P6SM FEW250=



000
FTUS44 KTSA 102333
TAFXNA
TAF
KXNA 102333Z 1100/1124 20009KT P6SM SKC
     FM110500 26005KT P6SM SKC
     FM110700 33005KT P6SM FEW250
     FM111500 03007KT P6SM SKC=



000
FTUS44 KTSA 102333
TAFTUL
TAF
KTUL 102333Z 1100/1124 20007KT P6SM SKC
     FM110400 27007KT P6SM SKC
     FM110500 33008KT P6SM FEW250=



000
FTUS44 KTSA 102333
TAFXNA
TAF
KXNA 102333Z 1100/1124 20009KT P6SM SKC
     FM110500 26005KT P6SM SKC
     FM110700 33005KT P6SM FEW250
     FM111500 03007KT P6SM SKC=



000
FTUS44 KTSA 102333
TAFMLC
TAF
KMLC 102333Z 1100/1124 21009KT P6SM SKC
     FM110700 25008KT P6SM SKC
     FM110900 35007KT P6SM SKC=



000
FTUS44 KTSA 102333
TAFFSM
TAF
KFSM 102333Z 1100/1124 21006KT P6SM SKC
     FM110300 12003KT P6SM SKC
     FM110400 18002KT P6SM SKC
     FM110500 22002KT P6SM SKC
     FM110600 26002KT P6SM SKC
     FM111400 33005KT P6SM SKC
     FM111600 04006KT P6SM SKC
     FM112300 36006KT P6SM FEW250=



000
FTUS44 KTSA 102333
TAFTUL
TAF
KTUL 102333Z 1100/1124 20007KT P6SM SKC
     FM110400 27007KT P6SM SKC
     FM110500 33008KT P6SM FEW250=



000
FTUS44 KTSA 102333
TAFRVS
TAF
KRVS 102333Z 1100/1124 20005KT P6SM SKC
     FM110300 26003KT P6SM SKC
     FM110500 33004KT P6SM SKC
     FM110900 01005KT P6SM FEW250=



000
FTUS44 KTSA 102333
TAFFYV
TAF
KFYV 102333Z 1100/1124 21009KT P6SM SKC
     FM110300 20003KT P6SM SKC
     FM110700 00000KT P6SM FEW250
     FM111200 35004KT P6SM FEW250
     FM111700 06005KT P6SM SKC=



000
FTUS44 KTSA 102118 AAA
TAFTUL
TAF AMD
KTUL 102118Z 1021/1118 20011KT P6SM SKC
     FM110000 23007KT P6SM SKC
     FM110600 33008KT P6SM FEW250
     FM111500 01010KT P6SM SCT250=



000
FTUS44 KTSA 102027 AAA
TAFXNA
TAF AMD
KXNA 102027Z 1020/1118 24015KT P6SM SKC
     FM110000 23005KT P6SM SKC
     FM110800 35005KT P6SM FEW250
     FM111200 03008KT P6SM SCT250=



000
FTUS44 KTSA 101720
TAFRVS
TAF
KRVS 101720Z 1018/1118 20013G21KT P6SM SKC
     FM110000 VRB03KT P6SM SKC
     FM111200 01007KT P6SM SCT250=



000
FTUS44 KTSA 101720
TAFTUL
TAF
KTUL 101720Z 1018/1118 20016G24KT P6SM SKC
     FM110000 23007KT P6SM SKC
     FM110600 33008KT P6SM FEW250
     FM111500 01010KT P6SM SCT250=



000
FTUS44 KTSA 101720
TAFFSM
TAF
KFSM 101720Z 1018/1118 18010KT P6SM SKC
     FM102000 23012G18KT P6SM SKC
     FM110000 27004KT P6SM SKC
     FM110600 VRB03KT P6SM FEW250
     FM111500 01006KT P6SM SCT250=



000
FTUS44 KTSA 101720
TAFMLC
TAF
KMLC 101720Z 1018/1118 20013G21KT P6SM SKC
     FM110000 22006KT P6SM SKC
     FM110900 36009KT P6SM SCT250=



000
FTUS44 KTSA 101720
TAFXNA
TAF
KXNA 101720Z 1018/1118 20011G17KT P6SM SKC
     FM110000 23005KT P6SM SKC
     FM110800 35005KT P6SM FEW250
     FM111200 03008KT P6SM SCT250=



000
FTUS44 KTSA 101720
TAFFYV
TAF
KFYV 101720Z 1018/1118 20011G17KT P6SM SKC
     FM110000 21005KT P6SM SKC
     FM110600 00000KT P6SM SKC
     FM111500 05006KT P6SM SCT250=



000
FTUS44 KTSA 101120
TAFRVS
TAF
KRVS 101120Z 1012/1112 VRB03KT P6SM FEW100
     FM101500 18011KT P6SM SCT100
     FM101800 21015G23KT P6SM SCT250
     FM110000 19004KT P6SM SCT250=



000
FTUS44 KTSA 101120
TAFXNA
TAF
KXNA 101120Z 1012/1112 19004KT P6SM BKN100
     FM101500 20005KT P6SM BKN100
     FM101800 21012G20KT P6SM SCT100
     FM110000 20005KT P6SM SCT250=



000
FTUS44 KTSA 101120
TAFMLC
TAF
KMLC 101120Z 1012/1112 00000KT P6SM FEW100
     FM101500 18010KT P6SM FEW100
     FM101800 21015G22KT P6SM SCT250
     FM110000 19006KT P6SM SCT250=



000
FTUS44 KTSA 101120
TAFTUL
TAF
KTUL 101120Z 1012/1112 22003KT P6SM FEW100
     FM101500 18012G18KT P6SM SCT100
     FM101800 21016G25KT P6SM SCT250
     FM110000 19007KT P6SM SCT250=



000
FTUS44 KTSA 101120
TAFFSM
TAF
KFSM 101120Z 1012/1112 00000KT P6SM SCT100
     FM101600 23008KT P6SM SCT100
     FM101900 23012G18KT P6SM SCT100
     FM110100 27004KT P6SM SCT250=



000
FTUS44 KTSA 101120
TAFFYV
TAF
KFYV 101120Z 1012/1112 00000KT P6SM BKN100
     FM101500 20005KT P6SM BKN100
     FM101800 21012G20KT P6SM SCT100
     FM110000 20005KT P6SM SCT250=



000
FTUS44 KTSA 100530
TAFTUL
TAF
KTUL 100530Z 1006/1106 36008KT P6SM SCT100
     FM100900 VRB04KT P6SM SCT100
     FM101500 18012G18KT P6SM SCT250
     FM101800 21016G25KT P6SM SCT250
     FM110000 19007KT P6SM SCT250=



000
FTUS44 KTSA 100530
TAFXNA
TAF
KXNA 100530Z 1006/1106 36010KT P6SM SCT100
     FM100900 VRB03KT P6SM SCT250
     FM101500 20005KT P6SM SCT250
     FM101800 21012G18KT P6SM SCT250
     FM110000 20005KT P6SM SCT250=



000
FTUS44 KTSA 100530
TAFMLC
TAF
KMLC 100530Z 1006/1106 34008KT P6SM SKC
     FM100900 VRB03KT P6SM SCT250
     FM101500 18010KT P6SM SCT250
     FM101800 21015G22KT P6SM SCT250
     FM110000 19006KT P6SM SCT250=



000
FTUS44 KTSA 100530
TAFRVS
TAF
KRVS 100530Z 1006/1106 02010KT P6SM SCT100
     FM100900 VRB03KT P6SM SCT100
     FM101500 18011KT P6SM SCT250
     FM101800 21015G23KT P6SM SCT250
     FM110000 19004KT P6SM SCT250=



000
FTUS44 KTSA 100530
TAFFSM
TAF
KFSM 100530Z 1006/1106 34011G18KT P6SM SKC
     FM100900 30004KT P6SM SCT250
     FM101600 23008KT P6SM SCT250
     FM101900 23012G18KT P6SM SCT250
     FM110000 22004KT P6SM SCT250=



000
FTUS44 KTSA 100530
TAFFYV
TAF
KFYV 100530Z 1006/1106 33011KT P6SM SCT100
     FM100900 VRB03KT P6SM SCT250
     FM101500 20005KT P6SM SCT250
     FM101800 21012G18KT P6SM SCT250
     FM110000 20005KT P6SM SCT250=



000
FTUS44 KTSA 092320
TAFFYV
TAF
KFYV 092320Z 1000/1024 32015G24KT P6SM SCT250
     FM100200 32006KT P6SM SCT250
     FM100600 VRB03KT P6SM BKN120
     FM101500 18007KT P6SM SCT250=



000
FTUS44 KTSA 092320
TAFTUL
TAF
KTUL 092320Z 1000/1024 34018G25KT P6SM FEW080 BKN250
     FM100200 35006KT P6SM SCT250
     FM100600 VRB04KT P6SM BKN120
     FM101500 18012G18KT P6SM SCT250=



000
FTUS44 KTSA 092320
TAFRVS
TAF
KRVS 092320Z 1000/1024 34010G26KT P6SM FEW080 BKN250
     FM100200 35003KT P6SM SCT250
     FM100600 00000KT P6SM BKN120
     FM101500 18011KT P6SM SCT250=



000
FTUS44 KTSA 092320
TAFXNA
TAF
KXNA 092320Z 1000/1024 32013G21KT P6SM SCT250
     FM100200 32006KT P6SM SCT250
     FM100600 VRB04KT P6SM BKN120
     FM101500 18009KT P6SM SCT250=



000
FTUS44 KTSA 092320
TAFMLC
TAF
KMLC 092320Z 1000/1024 34014G23KT P6SM SCT250
     FM100200 35004KT P6SM SCT250
     FM100600 VRB03KT P6SM SCT250
     FM101500 18010KT P6SM SCT250=



000
FTUS44 KTSA 092320
TAFFSM
TAF
KFSM 092320Z 1000/1024 30013G23KT P6SM SCT250
     FM100200 31006KT P6SM SCT250
     FM101200 VRB04KT P6SM SCT250
     FM101600 23008KT P6SM SCT250=



000
FTUS44 KTSA 092320
TAFXNA
TAF
KXNA 092320Z 1000/1024 32013G21KT P6SM SCT250
     FM100200 32006KT P6SM SCT250
     FM100600 VRB04KT P6SM BKN120
     FM101500 18009KT P6SM SCT250=



000
FTUS44 KTSA 092320
TAFFYV
TAF
KFYV 092320Z 1000/1024 32015G24KT P6SM SCT250
     FM100200 32006KT P6SM SCT250
     FM100600 VRB03KT P6SM BKN120
     FM101500 18007KT P6SM SCT250=



000
FTUS44 KTSA 092320
TAFTUL
TAF
KTUL 092320Z 1000/1024 34018G25KT P6SM FEW080 BKN250
     FM100200 35006KT P6SM SCT250
     FM100600 VRB04KT P6SM BKN120
     FM101500 18012G18KT P6SM SCT250=



000
FTUS44 KTSA 092320
TAFRVS
TAF
KRVS 092320Z 1000/1024 34010G26KT P6SM FEW080 BKN250
     FM100200 35003KT P6SM SCT250
     FM100600 00000KT P6SM BKN120
     FM101500 18011KT P6SM SCT250=



000
FTUS44 KTSA 092320
TAFMLC
TAF
KMLC 092320Z 1000/1024 34014G23KT P6SM SCT250
     FM100200 35004KT P6SM SCT250
     FM100600 VRB03KT P6SM SCT250
     FM101500 18010KT P6SM SCT250=



000
FTUS44 KTSA 092320
TAFFSM
TAF
KFSM 092320Z 1000/1024 30013G23KT P6SM SCT250
     FM100200 31006KT P6SM SCT250
     FM101200 VRB04KT P6SM SCT250
     FM101600 23008KT P6SM SCT250=



000
FTUS44 KTSA 092108 AAA
TAFFSM
TAF AMD
KFSM 092108Z 0921/1018 33011G20KT P6SM SKC
     FM100000 32008KT P6SM FEW250
     FM101200 VRB04KT P6SM SCT250=



000
FTUS44 KTSA 091720
TAFMLC
TAF
KMLC 091720Z 0918/1018 33015G24KT P6SM BKN070
     FM100000 36007KT P6SM SCT250
     FM100600 VRB03KT P6SM SCT250
     FM101500 18009KT P6SM SCT250=



000
FTUS44 KTSA 091720
TAFMLC
TAF
KMLC 091720Z 0918/1018 33015G24KT P6SM BKN070
     FM100000 36007KT P6SM SCT250
     FM100600 VRB03KT P6SM SCT250
     FM101500 18009KT P6SM SCT250=



000
FTUS44 KTSA 091720
TAFRVS
TAF
KRVS 091720Z 0918/1018 34012G20KT P6SM SCT080
     FM100000 VRB03KT P6SM FEW250
     FM101500 18010KT P6SM SCT250=



000
FTUS44 KTSA 091720
TAFRVS
TAF
KRVS 091720Z 0918/1018 34012G20KT P6SM SCT080
     FM100000 VRB03KT P6SM FEW250
     FM101500 18010KT P6SM SCT250=



000
FTUS44 KTSA 091720
TAFTUL
TAF
KTUL 091720Z 0918/1018 33015G26KT P6SM FEW080
     FM100000 36006KT P6SM FEW250
     FM100600 VRB04KT P6SM SCT250
     FM101500 18010KT P6SM SCT250=



000
FTUS44 KTSA 091720
TAFTUL
TAF
KTUL 091720Z 0918/1018 33015G26KT P6SM FEW080
     FM100000 36006KT P6SM FEW250
     FM100600 VRB04KT P6SM SCT250
     FM101500 18010KT P6SM SCT250=



000
FTUS44 KTSA 091720
TAFFYV
TAF
KFYV 091720Z 0918/1018 33014G25KT P6SM SKC
     FM100000 33005KT P6SM SKC
     FM100600 VRB03KT P6SM FEW250
     FM101500 18007KT P6SM SCT250=



000
FTUS44 KTSA 091720
TAFFYV
TAF
KFYV 091720Z 0918/1018 33014G25KT P6SM SKC
     FM100000 33005KT P6SM SKC
     FM100600 VRB03KT P6SM FEW250
     FM101500 18007KT P6SM SCT250=



000
FTUS44 KTSA 091720
TAFFSM
TAF
KFSM 091720Z 0918/1018 31016G25KT P6SM SKC
     FM100000 32008KT P6SM FEW250
     FM101200 VRB04KT P6SM SCT250=



000
FTUS44 KTSA 091720
TAFFSM
TAF
KFSM 091720Z 0918/1018 31016G25KT P6SM SKC
     FM100000 32008KT P6SM FEW250
     FM101200 VRB04KT P6SM SCT250=



000
FTUS44 KTSA 091720
TAFXNA
TAF
KXNA 091720Z 0918/1018 32014G24KT P6SM SKC
     FM100000 33009KT P6SM SKC
     FM100600 VRB04KT P6SM FEW250
     FM101500 18007KT P6SM SCT250=



000
FTUS44 KTSA 091720
TAFXNA
TAF
KXNA 091720Z 0918/1018 32014G24KT P6SM SKC
     FM100000 33009KT P6SM SKC
     FM100600 VRB04KT P6SM FEW250
     FM101500 18007KT P6SM SCT250=



000
FTUS44 KTSA 091123
TAFTUL
TAF
KTUL 091123Z 0912/1012 28007KT P6SM SKC
     FM091500 32013G23KT P6SM SKC
     FM100000 34006KT P6SM SCT250=



000
FTUS44 KTSA 091123
TAFRVS
TAF
KRVS 091123Z 0912/1012 VRB05KT P6SM SKC
     FM091500 34012G18KT P6SM SKC
     FM100000 36003KT P6SM SCT250=



000
FTUS44 KTSA 091123
TAFMLC
TAF
KMLC 091123Z 0912/1012 29005KT P6SM SKC
     FM091500 33015G22KT P6SM SKC
     FM100000 34003KT P6SM SCT250=



000
FTUS44 KTSA 091123
TAFFYV
TAF
KFYV 091123Z 0912/1012 28009KT P6SM SKC
     FM091500 30014G21KT P6SM SKC
     FM100000 32005KT P6SM SCT250=



000
FTUS44 KTSA 091123
TAFXNA
TAF
KXNA 091123Z 0912/1012 31013KT P6SM SKC
     FM091500 31014G23KT P6SM SKC
     FM100000 32007KT P6SM SCT250=



000
FTUS44 KTSA 091123
TAFFSM
TAF
KFSM 091123Z 0912/1012 26009KT P6SM SKC
     FM091500 30016G26KT P6SM SKC
     FM100000 32008KT P6SM SCT250=



000
FTUS44 KTSA 090520
TAFMLC
TAF
KMLC 090520Z 0906/1006 32011KT P6SM SCT250
     FM091500 33013G20KT P6SM SKC
     FM100000 34003KT P6SM SCT250=



000
FTUS44 KTSA 090520
TAFTUL
TAF
KTUL 090520Z 0906/1006 32011KT P6SM SCT250
     FM091500 32013G23KT P6SM SKC
     FM100000 34006KT P6SM SCT250=



000
FTUS44 KTSA 090520
TAFRVS
TAF
KRVS 090520Z 0906/1006 32011KT P6SM SCT250
     FM091500 34012G18KT P6SM SKC
     FM100000 36002KT P6SM SCT250=



000
FTUS44 KTSA 090520
TAFMLC
TAF
KMLC 090520Z 0906/1006 32011KT P6SM SCT250
     FM091500 33013G20KT P6SM SKC
     FM100000 34003KT P6SM SCT250=



000
FTUS44 KTSA 090520
TAFXNA
TAF
KXNA 090520Z 0906/1006 31011KT P6SM SCT250
     FM091500 32013G21KT P6SM SKC
     FM100000 32007KT P6SM SCT250=



000
FTUS44 KTSA 090520
TAFFYV
TAF
KFYV 090520Z 0906/1006 30011KT P6SM SCT250
     FM091500 32012G20KT P6SM SKC
     FM100000 32005KT P6SM SCT250=



000
FTUS44 KTSA 090520
TAFRVS
TAF
KRVS 090520Z 0906/1006 32011KT P6SM SCT250
     FM091500 34012G18KT P6SM SKC
     FM100000 36002KT P6SM SCT250=



000
FTUS44 KTSA 090520
TAFTUL
TAF
KTUL 090520Z 0906/1006 32011KT P6SM SCT250
     FM091500 32013G23KT P6SM SKC
     FM100000 34006KT P6SM SCT250=



000
FTUS44 KTSA 090520
TAFFYV
TAF
KFYV 090520Z 0906/1006 30011KT P6SM SCT250
     FM091500 32012G20KT P6SM SKC
     FM100000 32005KT P6SM SCT250=



000
FTUS44 KTSA 090520
TAFXNA
TAF
KXNA 090520Z 0906/1006 31011KT P6SM SCT250
     FM091500 32013G21KT P6SM SKC
     FM100000 32007KT P6SM SCT250=



000
FTUS44 KTSA 090520
TAFFSM
TAF
KFSM 090520Z 0906/1006 30010KT P6SM SCT250
     FM091500 30015G25KT P6SM SKC
     FM100000 32008KT P6SM SCT250=



000
FTUS44 KTSA 090520
TAFFSM
TAF
KFSM 090520Z 0906/1006 30010KT P6SM SCT250
     FM091500 30015G25KT P6SM SKC
     FM100000 32008KT P6SM SCT250=



000
FTUS44 KTSA 090331 AAC
TAFMLC
TAF AMD
KMLC 090331Z 0904/0924 33013G20KT P6SM FEW250
     FM090430 32011KT P6SM SCT250
     FM091500 33013G20KT P6SM SKC=



000
FTUS44 KTSA 090331 AAC
TAFMLC
TAF AMD
KMLC 090331Z 0904/0924 33013G20KT P6SM FEW250
     FM090430 32011KT P6SM SCT250
     FM091500 33013G20KT P6SM SKC=



000
FTUS44 KTSA 090319 AAA
TAFFSM
TAF AMD
KFSM 090319Z 0903/0924 32012G22KT P6SM FEW250
     FM090430 31011KT P6SM SKC
     FM091500 30015G24KT P6SM SKC=



000
FTUS44 KTSA 090239 AAA
TAFRVS
TAF AMD
KRVS 090239Z 0903/0924 32011KT P6SM SCT250
     FM091500 34012G18KT P6SM SKC=



000
FTUS44 KTSA 090239 AAB
TAFMLC
TAF AMD
KMLC 090239Z 0903/0924 31012G18KT P6SM SCT250
     FM090330 32008KT P6SM SCT250
     FM091500 33013G20KT P6SM SKC=



000
FTUS44 KTSA 090239 AAA
TAFRVS
TAF AMD
KRVS 090239Z 0903/0924 32011KT P6SM SCT250
     FM091500 34012G18KT P6SM SKC=



000
FTUS44 KTSA 090238 AAB
TAFTUL
TAF AMD
KTUL 090238Z 0903/0924 33017G22KT P6SM SCT250
     FM090330 31011KT P6SM SCT250
     FM091500 32014G23KT P6SM SKC=



000
FTUS44 KTSA 090111 AAA
TAFXNA
TAF AMD
KXNA 090111Z 0901/0924 32011G21KT P6SM SKC
     FM090200 31011KT P6SM FEW250
     FM091500 32013G21KT P6SM SKC=



000
FTUS44 KTSA 090111 AAA
TAFXNA
TAF AMD
KXNA 090111Z 0901/0924 32011G21KT P6SM SKC
     FM090200 31011KT P6SM FEW250
     FM091500 32013G21KT P6SM SKC=



000
FTUS44 KTSA 090110 AAA
TAFMLC
TAF AMD
KMLC 090110Z 0901/0924 33011G21KT P6SM SCT250
     FM090200 32008KT P6SM SCT250
     FM091500 33013G20KT P6SM SKC=



000
FTUS44 KTSA 090110 AAA
TAFTUL
TAF AMD
KTUL 090110Z 0901/0924 33017G25KT P6SM SCT250
     FM090200 31011KT P6SM SCT250
     FM091500 32014G23KT P6SM SKC=



000
FTUS44 KTSA 090110 AAA
TAFTUL
TAF AMD
KTUL 090110Z 0901/0924 33017G25KT P6SM SCT250
     FM090200 31011KT P6SM SCT250
     FM091500 32014G23KT P6SM SKC=



000
FTUS44 KTSA 090110 AAA
TAFMLC
TAF AMD
KMLC 090110Z 0901/0924 33011G21KT P6SM SCT250
     FM090200 32008KT P6SM SCT250
     FM091500 33013G20KT P6SM SKC=



000
FTUS44 KTSA 082324
TAFRVS
TAF
KRVS 082324Z 0900/0924 35014G28KT P6SM SCT250
     FM090100 33007KT P6SM SCT250
     FM091500 34012G18KT P6SM SKC=



000
FTUS44 KTSA 082324
TAFFSM
TAF
KFSM 082324Z 0900/0924 32019G32KT P6SM SKC
     FM090100 30011KT P6SM SKC
     FM091500 30015G24KT P6SM SKC=



000
FTUS44 KTSA 082324
TAFFYV
TAF
KFYV 082324Z 0900/0924 31022G31KT P6SM BKN070
     FM090100 30011KT P6SM FEW250
     FM091500 31012G19KT P6SM SKC=



000
FTUS44 KTSA 082324
TAFMLC
TAF
KMLC 082324Z 0900/0924 33021G28KT P6SM SCT250
     FM090100 32008KT P6SM SCT250
     FM091500 33013G20KT P6SM SKC=



000
FTUS44 KTSA 082324
TAFXNA
TAF
KXNA 082324Z 0900/0924 31016G28KT P6SM FEW060
     FM090100 31011KT P6SM FEW250
     FM091500 32013G21KT P6SM SKC=



000
FTUS44 KTSA 082324
TAFTUL
TAF
KTUL 082324Z 0900/0924 33024G35KT P6SM SCT250
     FM090100 31011KT P6SM SCT250
     FM091500 32014G23KT P6SM SKC=



000
FTUS44 KTSA 081740
TAFRVS
TAF
KRVS 081740Z 0818/0918 33018G30KT P6SM FEW060
     FM090100 33007KT P6SM SKC
     FM091500 33012G20KT P6SM SKC=



000
FTUS44 KTSA 081740
TAFMLC
TAF
KMLC 081740Z 0818/0918 32022G33KT P6SM SKC
     FM090100 32008KT P6SM SKC
     FM091500 33013G22KT P6SM SKC=



000
FTUS44 KTSA 081740
TAFFYV
TAF
KFYV 081740Z 0818/0918 31020G30KT P6SM BKN050
     FM090200 30012KT P6SM SCT050
     FM091500 32014G23KT P6SM SKC=



000
FTUS44 KTSA 081740
TAFTUL
TAF
KTUL 081740Z 0818/0918 33024G35KT P6SM FEW060
     FM090100 31011KT P6SM SKC
     FM091500 32014G23KT P6SM SKC=



000
FTUS44 KTSA 081740
TAFXNA
TAF
KXNA 081740Z 0818/0918 32020G30KT P6SM BKN050
     FM090200 31013KT P6SM SCT050
     FM091500 32015G24KT P6SM SKC=



000
FTUS44 KTSA 081740
TAFFSM
TAF
KFSM 081740Z 0818/0918 30022G34KT P6SM BKN060
     FM090100 20011KT P6SM SKC
     FM091500 30015G24KT P6SM SKC=



    US Dept of Commerce
    National Oceanic and Atmospheric Administration
    National Weather Service
    1325 East West Highway
    Silver Spring, MD 20910
    Page Author: NWS Internet Services Team
Disclaimer
Information Quality
Credits
Glossary
Privacy Policy
Freedom of Information Act (FOIA)
About Us
Career Opportunities